Terminal Aerodrome Forecast
Issued by NWS

Home | Current Version | Previous Version | Text Only | Print | Product List | Glossary On
Versions: 1 2 3 4 5 6 7 8 9 10 11 12 13 14 15 16 17 18 19 20 21 22 23
000
FTPA31 PHFO 231746
TAFHJH
TAF
PHJH 231746Z 2318/2418 07010KT P6SM SCT030 BKN045
     FM232100 05011G18KT P6SM SCT025 SCT040
     FM240600 05010KT P6SM FEW030 SCT045
      AMD NOT SKED AFT 240400=

USA.gov is the U.S. government's official web portal to all federal, state and local government web resources and services.